Flight Number: AVA2336 Duration: 2:00
Departure: Tulsa intl Airport (KTUL) at 00:30 Distance: 477.225 Nm
Arrival: Birmingham Intl Airport (KBHM) at 02:30 Equipment: B1900D

Weather Information
TULSA INTERNATIONAL AIRPORT, OK, United States (KTUL) 36-12N 95-53W 207M Aug 11, 2022 - 12:53 AM EDT / 2022.08.11 0453 UTC
Wind: from the ENE (060 degrees) at 9 MPH (8 KT):0
Visibility: 10 mile(s):0
Sky conditions: clear Temperature: 82.0 F (27.8 C) Dew Point: 64.0 F (17.8 C) Relative Humidity: 54% Pressure (altimeter): 30.09 in. Hg (1018 hPa)
ob: KTUL 110453Z 06008KT 10SM CLR 28/18 A3009 RMK AO2 SLP179 T02780178 cycle: 5
Sunrise: 11:42 Sunset: 01:15 (UTC)

BIRMINGHAM INT'L AIRPORT, AL, United States (KBHM) 33-34N 086-45W 197M Aug 11, 2022 - 12:53 AM EDT / 2022.08.11 0453 UTC
Wind: Calm:0
Visibility: 10 mile(s):0
Sky conditions: mostly cloudy Temperature: 75.0 F (23.9 C) Dew Point: 70.0 F (21.1 C) Relative Humidity: 84% Pressure (altimeter): 30.14 in. Hg (1020 hPa)
ob: KBHM 110453Z 00000KT 10SM FEW070 BKN150 24/21 A3014 RMK AO2 SLP196 T02390211 cycle: 5
Sunrise: 11:09 Sunset: 00:34 (UTC)

TAF:2022/08/11 06:20 TAF KBHM 110520Z 1106/1206 VRB03KT P6SM BKN120 FM111000 00000KT P6SM BKN025 TEMPO 1110/1114 BKN015 FM111500 22003KT P6SM VCSH BKN035 PROB30 1118/1121 4SM TSRA BR OVC025CB FM112100 19005KT 6SM SHRA BR BKN050 PROB30 1121/1201 4SM TSRA BR OVC025CB FM120100 19003KT P6SM BKN090 PROB30 1201/1206 4SM TSRA BR OVC035CB

This route has never been flown.

Route map